Time;durP1;ratioP1;P1;durP2;ratioP2;P2;SDS_P1;SDS_P2;PMS_P1;PMS_P2;Temp;Humidity;BMP_temperature;BMP_pressure;BME280_temperature;BME280_humidity;BME280_pressure;Samples;Min_cycle;Max_cycle;Signal;HPM_P1;HPM_P2
2021/05/03 00:02:21;;;;;;;2.20;0.90;;;19.90;53.90;;;;;;5164328;27;20473;-41
2021/05/03 00:04:51;;;;;;;0.80;0.80;;;19.70;54.00;;;;;;5163817;27;20486;-41
2021/05/03 00:07:22;;;;;;;2.03;0.90;;;19.50;53.00;;;;;;5164331;27;20444;-41
2021/05/03 00:09:52;;;;;;;4.27;2.10;;;19.40;52.40;;;;;;5164662;27;20443;-39
2021/05/03 00:12:23;;;;;;;1.13;1.03;;;19.30;54.40;;;;;;5164357;27;20451;-42
2021/05/03 00:14:53;;;;;;;1.70;0.90;;;19.30;54.00;;;;;;5159741;27;20455;-42
2021/05/03 00:17:23;;;;;;;2.43;1.10;;;19.40;54.20;;;;;;5164509;27;20475;-41
2021/05/03 00:19:53;;;;;;;1.37;1.07;;;19.40;57.00;;;;;;5165009;27;20902;-41
2021/05/03 00:22:23;;;;;;;1.20;1.10;;;19.40;54.00;;;;;;5165131;27;20766;-41
2021/05/03 00:24:53;;;;;;;3.07;1.20;;;19.30;54.60;;;;;;5164003;27;20512;-41
2021/05/03 00:27:24;;;;;;;0.90;0.87;;;19.30;55.10;;;;;;5163507;27;20447;-40
2021/05/03 00:29:54;;;;;;;2.30;1.00;;;19.40;52.50;;;;;;5164920;27;20444;-41
2021/05/03 00:32:24;;;;;;;0.80;0.80;;;19.30;54.20;;;;;;5164195;27;20448;-41
2021/05/03 00:34:54;;;;;;;2.10;1.60;;;19.30;54.00;;;;;;5164761;27;20440;-41
2021/05/03 00:37:24;;;;;;;2.10;1.10;;;19.10;55.10;;;;;;5163746;27;20494;-41
2021/05/03 00:39:55;;;;;;;3.10;1.83;;;18.90;56.20;;;;;;5165183;27;20573;-41
2021/05/03 00:42:26;;;;;;;3.13;1.27;;;18.80;56.00;;;;;;5163684;27;20972;-41
2021/05/03 00:44:56;;;;;;;2.90;1.33;;;18.80;55.70;;;;;;5164479;27;20447;-40
2021/05/03 00:47:27;;;;;;;1.90;1.53;;;18.60;56.40;;;;;;5164348;27;20503;-40
2021/05/03 00:49:58;;;;;;;1.70;1.10;;;18.80;54.40;;;;;;5163891;27;20556;-40
2021/05/03 00:52:28;;;;;;;1.30;1.20;;;18.80;54.20;;;;;;5164359;27;20459;-41
2021/05/03 00:54:58;;;;;;;1.43;1.20;;;18.80;53.90;;;;;;5164333;27;20451;-41
2021/05/03 00:57:29;;;;;;;1.77;1.67;;;18.80;53.30;;;;;;5163073;27;20479;-40
2021/05/03 00:59:59;;;;;;;1.50;1.40;;;18.80;53.20;;;;;;5162154;27;20455;-38
2021/05/03 01:02:29;;;;;;;1.23;1.13;;;18.70;54.50;;;;;;5163994;27;20464;-40
2021/05/03 01:04:59;;;;;;;1.20;1.10;;;18.70;53.70;;;;;;5164153;27;20456;-40
2021/05/03 01:07:29;;;;;;;2.30;1.87;;;18.70;53.20;;;;;;5163632;27;20523;-40
2021/05/03 01:09:59;;;;;;;2.03;1.83;;;18.70;54.60;;;;;;5164302;27;20448;-41
2021/05/03 01:12:31;;;;;;;1.47;0.90;;;18.80;54.70;;;;;;5163209;27;20459;-40
2021/05/03 01:15:01;;;;;;;1.33;1.23;;;18.70;53.90;;;;;;5164061;27;20448;-40
2021/05/03 01:17:32;;;;;;;2.03;1.30;;;18.60;54.70;;;;;;5164551;27;20471;-39
2021/05/03 01:20:09;;;;;;;1.23;1.10;;;18.80;54.00;;;;;;5164418;27;20477;-40
2021/05/03 01:22:40;;;;;;;1.50;1.40;;;18.70;54.90;;;;;;5163302;27;20439;-39
2021/05/03 01:25:12;;;;;;;2.50;1.23;;;18.50;55.00;;;;;;5163691;27;20786;-40
2021/05/03 01:27:42;;;;;;;1.23;0.93;;;18.40;53.50;;;;;;5162950;27;20451;-41
2021/05/03 01:30:15;;;;;;;1.40;1.10;;;18.30;53.80;;;;;;5163295;27;20470;-42
2021/05/03 01:32:45;;;;;;;2.37;1.30;;;18.20;54.70;;;;;;5163711;27;20444;-41
2021/05/03 01:35:16;;;;;;;1.60;1.50;;;18.10;54.30;;;;;;5163391;27;20519;-40
2021/05/03 01:37:52;;;;;;;2.40;2.20;;;18.10;56.50;;;;;;5164681;27;20527;-40
2021/05/03 01:40:23;;;;;;;2.27;2.07;;;18.20;54.90;;;;;;5165328;27;20455;-40
2021/05/03 01:42:53;;;;;;;1.20;1.10;;;18.20;55.40;;;;;;5166683;27;20444;-41
2021/05/03 01:45:28;;;;;;;1.10;1.00;;;18.10;53.30;;;;;;5161213;27;20478;-41
2021/05/03 01:47:58;;;;;;;5.57;1.20;;;18.10;54.30;;;;;;5166736;27;20484;-41
2021/05/03 01:50:28;;;;;;;1.13;1.10;;;18.10;54.70;;;;;;5167446;27;20516;-41
2021/05/03 01:52:59;;;;;;;1.03;1.03;;;18.10;53.30;;;;;;5167535;27;20519;-42
2021/05/03 01:55:31;;;;;;;0.80;0.70;;;18.00;55.90;;;;;;5167353;27;20451;-42
2021/05/03 01:58:01;;;;;;;3.30;0.90;;;18.10;54.20;;;;;;5164549;27;20475;-42
2021/05/03 02:00:32;;;;;;;2.20;2.00;;;18.00;54.20;;;;;;5166477;27;20436;-40
2021/05/03 02:03:02;;;;;;;1.23;1.07;;;18.00;55.20;;;;;;5163726;27;20463;-41
2021/05/03 02:05:32;;;;;;;1.17;1.07;;;18.00;54.80;;;;;;5164722;27;20837;-42
2021/05/03 02:08:05;;;;;;;1.80;1.40;;;18.00;55.50;;;;;;5166476;27;20519;-41
2021/05/03 02:10:37;;;;;;;1.30;1.10;;;18.00;55.50;;;;;;5167444;27;20500;-40
2021/05/03 02:13:07;;;;;;;1.13;1.13;;;18.00;56.20;;;;;;5166453;27;20512;-41
2021/05/03 02:15:37;;;;;;;1.30;1.20;;;17.90;54.10;;;;;;5167574;27;20432;-41
2021/05/03 02:18:08;;;;;;;1.23;1.13;;;17.90;54.10;;;;;;5167239;27;20507;-41
2021/05/03 02:20:42;;;;;;;2.50;1.20;;;17.80;53.90;;;;;;5167329;27;20444;-40
2021/05/03 02:23:15;;;;;;;0.87;0.87;;;17.60;54.70;;;;;;5166406;27;20515;-40
2021/05/03 02:25:45;;;;;;;1.47;1.10;;;17.50;53.90;;;;;;5163188;27;20505;-40
2021/05/03 02:28:15;;;;;;;1.17;1.07;;;17.50;54.00;;;;;;5166216;27;20508;-42
2021/05/03 02:30:45;;;;;;;1.23;0.83;;;17.50;54.10;;;;;;5163339;27;20444;-41
2021/05/03 02:33:15;;;;;;;0.80;0.70;;;17.40;53.80;;;;;;5166529;27;20523;-41
2021/05/03 02:35:45;;;;;;;1.47;1.37;;;17.30;53.60;;;;;;5177067;27;20444;-41
2021/05/03 02:38:17;;;;;;;0.97;0.97;;;17.30;54.60;;;;;;5159706;27;20487;-43
2021/05/03 02:40:47;;;;;;;1.90;1.20;;;17.20;54.80;;;;;;5163383;27;20467;-41
2021/05/03 02:43:17;;;;;;;1.13;1.00;;;17.10;56.50;;;;;;5152374;27;20515;-41
2021/05/03 02:45:48;;;;;;;1.73;0.80;;;17.00;55.90;;;;;;5166858;27;20467;-42
2021/05/03 02:48:38;;;;;;;0.80;0.80;;;16.90;55.50;;;;;;5165775;27;20988;-41
2021/05/03 02:51:08;;;;;;;1.40;1.00;;;16.90;56.10;;;;;;5157545;27;20458;-41
2021/05/03 02:53:39;;;;;;;0.83;0.67;;;16.80;55.40;;;;;;5165837;27;20492;-40
2021/05/03 02:56:09;;;;;;;0.80;0.80;;;16.80;56.10;;;;;;5166354;27;20505;-40
2021/05/03 02:58:39;;;;;;;1.57;0.97;;;16.70;56.10;;;;;;5166040;27;20444;-41
2021/05/03 03:01:09;;;;;;;0.97;0.90;;;16.70;55.80;;;;;;5167632;27;20466;-42
2021/05/03 03:03:39;;;;;;;2.70;1.67;;;16.60;56.90;;;;;;5166110;27;20499;-41
2021/05/03 03:06:09;;;;;;;1.37;1.07;;;16.50;56.90;;;;;;5166617;27;20452;-41
2021/05/03 03:08:41;;;;;;;1.00;0.80;;;16.40;57.10;;;;;;5166426;27;20458;-39
2021/05/03 03:11:11;;;;;;;2.30;1.10;;;16.30;57.00;;;;;;5165775;27;20447;-40
2021/05/03 03:13:41;;;;;;;1.10;1.00;;;16.30;57.80;;;;;;5163697;27;20436;-41
2021/05/03 03:16:12;;;;;;;1.43;1.00;;;16.20;58.40;;;;;;5165188;27;20456;-41
2021/05/03 03:18:42;;;;;;;1.47;1.00;;;16.10;58.60;;;;;;5165893;27;20440;-41
2021/05/03 03:21:13;;;;;;;1.10;1.00;;;16.10;58.70;;;;;;5165775;27;20455;-42
2021/05/03 03:23:44;;;;;;;1.03;1.00;;;16.10;59.10;;;;;;5166002;27;20532;-40
2021/05/03 03:26:14;;;;;;;1.20;1.10;;;16.00;59.70;;;;;;5166055;27;20455;-40
2021/05/03 03:28:47;;;;;;;1.47;0.97;;;15.90;60.00;;;;;;5164140;27;20464;-38
2021/05/03 03:31:17;;;;;;;1.47;1.30;;;15.80;61.20;;;;;;5165555;27;20443;-41
2021/05/03 03:33:47;;;;;;;1.37;0.80;;;15.70;62.20;;;;;;5165283;27;20448;-40
2021/05/03 03:36:17;;;;;;;2.30;0.83;;;15.60;62.30;;;;;;5165165;27;20452;-40
2021/05/03 03:38:48;;;;;;;3.33;0.80;;;15.60;62.70;;;;;;5160416;27;20454;-39
2021/05/03 03:41:19;;;;;;;2.73;0.90;;;15.50;63.60;;;;;;5165839;27;20440;-39
2021/05/03 03:43:49;;;;;;;5.90;1.00;;;15.40;63.30;;;;;;5166114;27;20825;-39
2021/05/03 03:49:07;;;;;;;1.77;1.40;;;15.30;64.70;;;;;;5166044;27;20492;-39
2021/05/03 03:51:37;;;;;;;1.60;1.23;;;15.20;66.20;;;;;;5165407;27;20481;-42
2021/05/03 03:54:08;;;;;;;1.00;1.00;;;15.10;66.30;;;;;;5165423;27;20459;-42
2021/05/03 03:56:38;;;;;;;0.87;0.87;;;15.00;67.70;;;;;;5163779;27;20556;-40
2021/05/03 03:59:10;;;;;;;0.93;0.83;;;14.90;67.30;;;;;;5165391;27;20436;-39
2021/05/03 04:01:41;;;;;;;1.30;1.20;;;14.90;67.00;;;;;;5159815;27;20444;-39
2021/05/03 04:04:15;;;;;;;1.10;1.00;;;14.90;66.90;;;;;;5164257;27;20452;-43
2021/05/03 04:06:50;;;;;;;2.63;1.10;;;14.80;67.30;;;;;;5164498;27;20567;-40
2021/05/03 04:09:31;;;;;;;0.93;0.70;;;14.80;67.30;;;;;;5161879;27;20440;-40
2021/05/03 04:23:50;;;;;;;1.67;0.90;;;14.50;70.90;;;;;;5079962;28;20516;-40
2021/05/03 04:26:23;;;;;;;0.70;0.70;;;14.40;70.40;;;;;;5080166;28;20884;-41
2021/05/03 04:28:54;;;;;;;1.53;0.70;;;14.30;71.50;;;;;;5080738;28;20452;-41
2021/05/03 04:31:24;;;;;;;1.73;0.70;;;14.30;71.70;;;;;;5079517;28;20451;-40
2021/05/03 04:33:59;;;;;;;0.83;0.63;;;14.20;71.50;;;;;;5080234;28;20444;-39
2021/05/03 04:36:29;;;;;;;0.90;0.70;;;14.20;72.90;;;;;;5079394;28;20455;-39
2021/05/03 04:38:59;;;;;;;1.17;1.00;;;14.10;72.30;;;;;;5079995;28;20475;-40
2021/05/03 04:41:30;;;;;;;0.90;0.77;;;14.00;73.20;;;;;;5079849;28;20931;-40
2021/05/03 04:44:00;;;;;;;0.87;0.87;;;14.00;73.50;;;;;;5080007;28;21062;-40
2021/05/03 04:46:31;;;;;;;4.30;1.37;;;13.90;73.10;;;;;;5079840;28;20475;-40
2021/05/03 04:49:01;;;;;;;0.60;0.60;;;13.90;75.00;;;;;;5080675;28;20448;-40
2021/05/03 04:51:31;;;;;;;1.17;0.80;;;13.80;74.80;;;;;;5078823;28;20551;-39
2021/05/03 04:54:01;;;;;;;1.20;0.87;;;13.80;75.20;;;;;;5096514;27;20506;-39
2021/05/03 04:56:32;;;;;;;0.87;0.87;;;13.80;75.10;;;;;;5163199;27;20812;-40
2021/05/03 04:59:02;;;;;;;1.00;0.90;;;13.70;75.20;;;;;;5163816;27;20461;-40
2021/05/03 05:01:32;;;;;;;0.80;0.80;;;13.70;76.00;;;;;;5162125;27;20441;-40
2021/05/03 05:04:02;;;;;;;0.90;0.90;;;13.60;76.10;;;;;;5162970;27;20510;-39
2021/05/03 05:06:32;;;;;;;1.57;0.83;;;13.50;77.90;;;;;;5163701;27;20448;-39
2021/05/03 05:09:04;;;;;;;0.77;0.60;;;13.50;78.30;;;;;;5163411;27;20436;-37
2021/05/03 05:11:36;;;;;;;2.70;0.83;;;13.30;80.00;;;;;;5162742;27;20846;-39
2021/05/03 05:14:06;;;;;;;1.27;0.90;;;13.30;82.10;;;;;;5164249;27;20471;-40
2021/05/03 05:16:36;;;;;;;0.60;0.60;;;13.20;82.90;;;;;;5164312;27;20452;-40
2021/05/03 05:19:07;;;;;;;1.40;1.00;;;13.10;85.00;;;;;;5164725;27;20476;-39
2021/05/03 05:21:37;;;;;;;2.00;0.93;;;13.10;85.00;;;;;;5164169;27;20441;-40
2021/05/03 05:24:10;;;;;;;1.57;1.47;;;13.00;87.00;;;;;;5164562;27;20959;-40
2021/05/03 05:26:41;;;;;;;1.23;1.00;;;12.90;88.90;;;;;;5163222;27;20523;-42
2021/05/03 05:29:11;;;;;;;2.43;1.00;;;12.90;88.60;;;;;;5164307;27;20476;-39
2021/05/03 05:31:42;;;;;;;0.97;0.93;;;12.90;88.50;;;;;;5163547;27;20472;-40
2021/05/03 05:34:12;;;;;;;1.10;1.00;;;12.90;88.50;;;;;;5164135;27;20781;-40
2021/05/03 05:36:43;;;;;;;4.27;1.10;;;13.00;88.60;;;;;;5164506;27;20271;-40
2021/05/03 05:39:14;;;;;;;1.50;1.10;;;13.00;89.30;;;;;;5164653;27;21001;-40
2021/05/03 05:41:45;;;;;;;1.33;1.20;;;12.90;90.10;;;;;;5163228;27;20654;-41
2021/05/03 05:44:15;;;;;;;1.27;1.17;;;12.90;91.00;;;;;;5164293;27;20452;-41
2021/05/03 05:46:47;;;;;;;0.80;0.80;;;12.90;91.50;;;;;;5163007;27;20525;-40
2021/05/03 05:49:18;;;;;;;1.63;1.20;;;12.80;92.30;;;;;;5164673;27;20523;-38
2021/05/03 05:51:48;;;;;;;1.60;1.23;;;12.80;92.80;;;;;;5163310;27;20432;-40
2021/05/03 05:54:18;;;;;;;5.55;1.15;;;12.70;93.80;;;;;;5163585;27;20933;-40
2021/05/03 05:56:49;;;;;;;1.38;1.20;;;12.70;94.20;;;;;;5162504;27;20221;-40
2021/05/03 05:59:19;;;;;;;1.83;1.00;;;12.60;94.70;;;;;;5162044;27;20191;-40
2021/05/03 06:01:49;;;;;;;1.03;1.00;;;12.60;95.40;;;;;;5163629;27;20458;-40
2021/05/03 06:04:24;;;;;;;1.70;1.10;;;12.60;95.70;;;;;;5163511;27;20483;-40
2021/05/03 06:06:54;;;;;;;0.90;0.80;;;12.50;96.10;;;;;;5162203;27;20499;-39
2021/05/03 06:09:44;;;;;;;0.90;0.90;;;12.50;96.90;;;;;;5163412;27;20564;-41
2021/05/03 06:12:15;;;;;;;0.87;0.73;;;12.40;96.90;;;;;;5162525;27;20210;-41
2021/05/03 06:14:45;;;;;;;1.53;1.20;;;12.50;97.30;;;;;;5162914;27;20830;-38
2021/05/03 06:17:16;;;;;;;1.10;0.80;;;12.40;97.60;;;;;;5163633;27;20475;-41
2021/05/03 06:19:50;;;;;;;2.87;1.03;;;12.40;98.10;;;;;;5164387;27;20631;-40
2021/05/03 06:22:22;;;;;;;1.30;1.20;;;12.30;98.30;;;;;;5164185;27;20456;-42
2021/05/03 06:24:52;;;;;;;1.70;1.30;;;12.20;98.90;;;;;;5168104;27;20194;-42
2021/05/03 06:27:28;;;;;;;1.88;1.02;;;12.20;99.20;;;;;;5166265;27;20194;-40
2021/05/03 06:30:23;;;;;;;2.20;1.30;;;12.20;99.60;;;;;;5166936;27;20201;-41
2021/05/03 06:33:12;;;;;;;1.98;1.00;;;12.20;99.80;;;;;;5167594;27;20209;-40
2021/05/03 06:35:48;;;;;;;1.23;0.93;;;12.10;99.90;;;;;;5166687;27;20213;-40
2021/05/03 06:38:25;;;;;;;1.35;0.90;;;12.00;99.90;;;;;;5166462;27;20233;-41
2021/05/03 06:40:58;;;;;;;1.25;0.80;;;12.00;99.90;;;;;;5167397;27;20198;-41
2021/05/03 06:43:35;;;;;;;3.45;1.10;;;12.00;99.90;;;;;;5165805;27;20257;-41
2021/05/03 06:49:09;;;;;;;0.90;0.90;;;11.90;99.90;;;;;;5167568;27;20202;-41
2021/05/03 06:51:41;;;;;;;1.40;1.30;;;11.90;99.90;;;;;;5166469;27;20195;-40
2021/05/03 06:54:13;;;;;;;1.33;0.90;;;11.80;99.90;;;;;;5167255;27;20195;-40
2021/05/03 06:56:43;;;;;;;0.98;0.93;;;11.70;99.90;;;;;;5165547;27;20206;-41
2021/05/03 06:59:14;;;;;;;0.85;0.85;;;11.70;99.90;;;;;;5166893;27;20203;-40
2021/05/03 07:01:44;;;;;;;1.20;0.95;;;11.70;99.90;;;;;;5166012;27;20212;-41
2021/05/03 07:04:14;;;;;;;1.95;0.75;;;11.60;99.90;;;;;;5167867;27;20235;-39
2021/05/03 07:06:44;;;;;;;1.00;1.00;;;11.60;99.90;;;;;;5165436;27;20194;-41
2021/05/03 07:09:14;;;;;;;0.90;0.90;;;11.50;99.90;;;;;;5166400;27;20195;-41
2021/05/03 07:11:45;;;;;;;0.73;0.73;;;11.40;99.90;;;;;;5166208;27;20693;-40
2021/05/03 07:14:16;;;;;;;1.65;0.90;;;11.40;99.90;;;;;;5166654;27;20324;-40
2021/05/03 07:16:46;;;;;;;1.10;1.00;;;11.40;99.90;;;;;;5165963;27;20190;-41
2021/05/03 07:19:17;;;;;;;1.33;0.82;;;11.40;99.90;;;;;;5167234;27;20194;-41
2021/05/03 07:21:47;;;;;;;0.95;0.85;;;11.30;99.90;;;;;;5166427;27;20697;-40
2021/05/03 07:24:17;;;;;;;1.00;1.00;;;11.20;99.90;;;;;;5166879;27;20194;-41
2021/05/03 07:26:47;;;;;;;1.23;1.13;;;11.20;99.90;;;;;;5163723;27;20202;-40
2021/05/03 07:29:18;;;;;;;1.08;1.02;;;11.20;99.90;;;;;;5166501;27;20191;-41
2021/05/03 07:31:48;;;;;;;4.05;1.00;;;11.20;99.90;;;;;;5167001;27;20223;-41
2021/05/03 07:34:18;;;;;;;1.45;0.80;;;11.20;99.90;;;;;;5165146;27;20224;-40
2021/05/03 07:36:48;;;;;;;0.80;0.80;;;11.20;99.90;;;;;;5165620;27;20199;-40
2021/05/03 07:39:18;;;;;;;3.95;0.90;;;11.20;99.90;;;;;;5163158;27;20662;-40
2021/05/03 07:41:48;;;;;;;0.93;0.93;;;11.10;99.90;;;;;;5165523;27;20231;-40
2021/05/03 07:44:21;;;;;;;1.25;1.13;;;11.10;99.90;;;;;;5166941;27;20191;-41
2021/05/03 07:46:52;;;;;;;1.50;0.70;;;11.00;99.90;;;;;;5166229;27;20248;-40
2021/05/03 07:49:22;;;;;;;1.15;1.05;;;11.00;99.90;;;;;;5150302;27;20195;-40
2021/05/03 07:51:52;;;;;;;1.00;1.00;;;11.00;99.90;;;;;;5166312;27;20194;-40
2021/05/03 07:54:22;;;;;;;1.27;1.15;;;11.00;99.90;;;;;;5166046;27;20294;-40
2021/05/03 07:56:52;;;;;;;1.05;1.00;;;10.90;99.90;;;;;;5165304;27;20202;-40
2021/05/03 07:59:23;;;;;;;1.63;0.90;;;10.90;99.90;;;;;;5165730;27;20198;-40
2021/05/03 08:01:53;;;;;;;0.95;0.90;;;10.90;99.90;;;;;;5165904;27;20349;-40
2021/05/03 08:04:24;;;;;;;0.95;0.93;;;10.80;99.90;;;;;;5165919;27;20207;-40
2021/05/03 08:06:57;;;;;;;1.63;0.90;;;10.70;99.90;;;;;;5165586;27;20202;-40
2021/05/03 08:09:28;;;;;;;0.90;0.80;;;10.70;99.90;;;;;;5166090;27;20314;-39
2021/05/03 08:11:58;;;;;;;2.17;1.20;;;10.70;99.90;;;;;;5164828;27;20203;-41
2021/05/03 08:14:29;;;;;;;1.02;0.88;;;10.60;99.90;;;;;;5166812;27;20527;-40
2021/05/03 08:17:03;;;;;;;2.35;0.90;;;10.60;99.90;;;;;;5165013;27;20587;-41
2021/05/03 08:19:34;;;;;;;2.67;1.13;;;10.50;99.90;;;;;;5166351;27;20331;-41
2021/05/03 08:22:05;;;;;;;1.98;1.23;;;10.50;99.90;;;;;;5165462;27;20194;-41
2021/05/03 08:24:36;;;;;;;0.90;0.90;;;10.40;99.90;;;;;;5165948;27;20234;-40
2021/05/03 08:27:07;;;;;;;1.35;1.25;;;10.40;99.90;;;;;;5164687;27;20245;-40
2021/05/03 08:29:39;;;;;;;1.70;1.10;;;10.30;99.90;;;;;;5165161;27;20189;-40
2021/05/03 08:32:09;;;;;;;1.05;1.00;;;10.30;99.90;;;;;;5165133;27;20295;-40
2021/05/03 08:34:40;;;;;;;1.73;1.50;;;10.30;99.90;;;;;;5165067;27;20637;-40
2021/05/03 08:37:12;;;;;;;3.33;1.30;;;10.20;99.90;;;;;;5164579;27;20202;-40
2021/05/03 08:39:42;;;;;;;1.10;1.10;;;10.30;99.90;;;;;;5165105;27;20221;-40
2021/05/03 08:42:15;;;;;;;1.60;1.20;;;10.20;99.90;;;;;;5164983;27;20203;-40
2021/05/03 08:44:51;;;;;;;2.42;1.10;;;10.10;99.90;;;;;;5165547;27;20249;-40
2021/05/03 08:47:22;;;;;;;3.17;1.50;;;10.10;99.90;;;;;;5164655;27;20236;-40
2021/05/03 08:49:55;;;;;;;1.67;1.58;;;10.10;99.90;;;;;;5165287;27;20194;-40
2021/05/03 08:52:29;;;;;;;1.33;1.23;;;10.10;99.90;;;;;;5164652;27;20202;-40
2021/05/03 08:54:59;;;;;;;1.75;1.20;;;10.10;99.90;;;;;;5164617;27;20220;-40
2021/05/03 08:57:29;;;;;;;1.90;1.50;;;10.10;99.90;;;;;;5164404;27;20272;-39
2021/05/03 09:00:01;;;;;;;1.92;1.35;;;10.10;99.90;;;;;;5164852;27;20191;-40
2021/05/03 09:02:32;;;;;;;1.20;1.05;;;10.10;99.90;;;;;;5164187;27;20198;-41
2021/05/03 09:05:02;;;;;;;2.03;1.15;;;10.00;99.90;;;;;;5164425;27;20542;-40
2021/05/03 09:07:32;;;;;;;1.33;1.23;;;10.10;99.90;;;;;;5163575;27;20210;-41
2021/05/03 09:10:15;;;;;;;1.25;1.15;;;10.10;99.90;;;;;;5165214;27;20664;-39
2021/05/03 09:12:46;;;;;;;1.90;1.52;;;10.00;99.90;;;;;;5163925;27;20194;-41
2021/05/03 09:15:24;;;;;;;2.38;1.35;;;10.10;99.90;;;;;;5165281;27;20665;-40
2021/05/03 09:17:54;;;;;;;1.50;1.40;;;10.10;99.90;;;;;;5164392;27;20224;-39
2021/05/03 09:20:26;;;;;;;3.28;1.40;;;10.00;99.90;;;;;;5165546;27;20194;-41
2021/05/03 09:22:58;;;;;;;3.13;1.50;;;9.90;99.90;;;;;;5164785;27;20255;-40
2021/05/03 09:25:33;;;;;;;2.20;1.55;;;9.90;99.90;;;;;;5164468;27;20225;-39
2021/05/03 09:28:08;;;;;;;1.65;1.15;;;9.90;99.90;;;;;;5163190;27;20197;-40
2021/05/03 09:30:42;;;;;;;3.33;1.50;;;9.90;99.90;;;;;;5164477;27;20190;-39
2021/05/03 09:33:26;;;;;;;1.30;1.20;;;9.90;99.90;;;;;;5160104;27;20203;-40
2021/05/03 09:35:57;;;;;;;1.95;1.60;;;9.80;99.90;;;;;;5164920;27;20208;-40
2021/05/03 09:38:45;;;;;;;2.22;1.80;;;9.90;99.90;;;;;;5156969;27;20267;-40
2021/05/03 09:41:24;;;;;;;2.13;1.48;;;9.90;99.90;;;;;;5164257;27;20280;-39
2021/05/03 09:43:55;;;;;;;1.20;1.10;;;9.90;99.90;;;;;;5164926;27;20205;-39
2021/05/03 09:46:36;;;;;;;1.40;1.30;;;10.10;99.90;;;;;;5164751;27;20245;-40
2021/05/03 09:49:08;;;;;;;3.38;1.42;;;10.10;99.90;;;;;;5164475;27;20204;-40
2021/05/03 09:51:42;;;;;;;1.73;1.30;;;10.10;99.90;;;;;;5164331;27;20194;-40
2021/05/03 09:54:15;;;;;;;2.03;1.65;;;10.20;99.90;;;;;;5164790;27;20293;-40
2021/05/03 09:57:02;;;;;;;1.83;1.27;;;10.20;99.90;;;;;;5163461;27;20217;-40
2021/05/03 09:59:37;;;;;;;1.55;1.45;;;10.30;99.90;;;;;;5168124;27;20375;-38
2021/05/03 10:02:16;;;;;;;1.50;1.30;;;10.20;99.90;;;;;;5167540;27;20194;-39
2021/05/03 10:05:00;;;;;;;1.23;1.13;;;10.20;99.90;;;;;;5169259;27;20301;-40
2021/05/03 10:07:32;;;;;;;1.70;1.58;;;10.30;99.90;;;;;;5167568;27;20199;-40
2021/05/03 10:10:06;;;;;;;1.48;1.38;;;10.30;99.90;;;;;;5165518;27;20203;-40
2021/05/03 10:12:37;;;;;;;2.35;1.48;;;10.30;99.90;;;;;;5167112;27;20207;-40
2021/05/03 10:15:10;;;;;;;2.92;1.45;;;10.30;99.90;;;;;;5167980;27;20199;-41
2021/05/03 10:17:42;;;;;;;1.73;1.40;;;10.30;99.90;;;;;;5167696;27;20214;-40
2021/05/03 10:20:15;;;;;;;1.45;1.20;;;10.30;99.90;;;;;;5168186;27;20212;-35
2021/05/03 10:22:49;;;;;;;1.95;1.25;;;10.30;99.90;;;;;;5167299;27;20194;-40
2021/05/03 10:25:20;;;;;;;1.60;1.50;;;10.30;99.90;;;;;;5167324;27;20220;-39
2021/05/03 10:27:52;;;;;;;2.67;1.50;;;10.30;99.90;;;;;;5166725;27;20190;-42
2021/05/03 10:30:24;;;;;;;2.63;1.42;;;10.30;99.90;;;;;;5167728;27;20594;-38
2021/05/03 10:33:01;;;;;;;1.05;1.02;;;10.30;99.90;;;;;;5166801;27;20198;-40
2021/05/03 10:35:32;;;;;;;3.25;1.88;;;10.30;99.90;;;;;;5167458;27;20193;-39
2021/05/03 10:38:03;;;;;;;1.25;1.15;;;10.30;99.90;;;;;;5159383;27;20925;-39
2021/05/03 10:40:51;;;;;;;1.65;1.55;;;10.20;99.90;;;;;;5167188;27;20199;-37
2021/05/03 10:43:27;;;;;;;1.55;1.45;;;10.10;99.90;;;;;;5158761;27;20203;-39
2021/05/03 10:50:06;;;;;;;2.33;1.40;;;10.10;99.90;;;;;;5165885;27;20227;-38
2021/05/03 10:52:38;;;;;;;1.60;1.35;;;10.10;99.90;;;;;;5166495;27;20255;-38
2021/05/03 10:55:08;;;;;;;1.50;1.40;;;10.20;99.90;;;;;;5167002;27;20190;-38
2021/05/03 10:57:41;;;;;;;3.25;1.33;;;10.20;99.90;;;;;;5157150;27;20282;-40
2021/05/03 11:00:31;;;;;;;1.42;1.33;;;10.30;99.90;;;;;;5166900;27;20198;-37
2021/05/03 11:03:01;;;;;;;3.05;1.90;;;10.30;99.90;;;;;;5165088;27;20212;-40
2021/05/03 11:05:32;;;;;;;3.13;1.70;;;10.30;99.90;;;;;;5167845;27;20186;-39
2021/05/03 11:08:32;;;;;;;1.33;1.23;;;10.30;99.90;;;;;;5165799;27;20330;-39
2021/05/03 11:11:15;;;;;;;1.65;1.55;;;10.30;99.90;;;;;;5149617;27;20198;-40
2021/05/03 11:13:58;;;;;;;3.33;1.92;;;10.30;99.90;;;;;;5157069;27;20226;-41
2021/05/03 11:16:51;;;;;;;1.88;1.45;;;10.40;99.90;;;;;;5161491;27;20271;-39
2021/05/03 11:19:49;;;;;;;1.33;1.23;;;10.30;99.90;;;;;;5166566;27;20274;-40
2021/05/03 11:22:20;;;;;;;2.25;1.40;;;10.30;99.90;;;;;;5165958;27;20227;-40
2021/05/03 11:24:56;;;;;;;1.90;1.80;;;10.30;99.90;;;;;;5166309;27;20245;-41
2021/05/03 11:27:54;;;;;;;2.08;1.60;;;10.30;99.90;;;;;;5165391;27;20229;-40
2021/05/03 11:30:29;;;;;;;2.80;1.45;;;10.30;99.90;;;;;;5165933;27;20202;-39
2021/05/03 11:33:00;;;;;;;1.95;1.65;;;10.40;99.90;;;;;;5165545;27;20198;-39
2021/05/03 11:35:36;;;;;;;1.60;1.50;;;10.30;99.90;;;;;;5165707;27;20876;-39
2021/05/03 11:38:20;;;;;;;1.92;1.48;;;10.30;99.90;;;;;;5165429;27;20225;-40
2021/05/03 11:41:02;;;;;;;1.70;1.55;;;10.40;99.90;;;;;;5165860;27;20251;-40
2021/05/03 11:46:31;;;;;;;1.80;1.70;;;10.40;99.90;;;;;;5165469;27;20358;-41
2021/05/03 11:49:13;;;;;;;1.88;1.70;;;10.40;99.90;;;;;;5163732;27;20547;-38
2021/05/03 11:51:46;;;;;;;1.75;1.60;;;10.40;99.90;;;;;;5165724;27;20191;-39
2021/05/03 11:54:30;;;;;;;1.80;1.65;;;10.50;99.90;;;;;;5167016;27;20195;-40
2021/05/03 11:57:03;;;;;;;1.95;1.60;;;10.60;99.90;;;;;;5165476;27;20191;-40
2021/05/03 11:59:33;;;;;;;2.30;2.00;;;10.50;99.90;;;;;;5165587;27;20233;-45
2021/05/03 12:02:05;;;;;;;2.35;1.80;;;10.50;99.90;;;;;;5165922;27;20209;-40
2021/05/03 12:04:39;;;;;;;1.70;1.50;;;10.60;99.90;;;;;;5165255;27;20246;-39
2021/05/03 12:07:18;;;;;;;2.20;1.90;;;10.50;99.90;;;;;;5165483;27;20194;-40
2021/05/03 12:09:49;;;;;;;2.15;1.75;;;10.50;99.90;;;;;;5165780;27;20194;-40
2021/05/03 12:12:21;;;;;;;1.65;1.40;;;10.60;99.90;;;;;;5165508;27;20548;-40
2021/05/03 12:14:51;;;;;;;3.05;1.52;;;10.60;99.90;;;;;;5166034;27;20195;-40
2021/05/03 12:17:24;;;;;;;1.85;1.73;;;10.60;99.90;;;;;;5165215;27;20318;-40
2021/05/03 12:19:55;;;;;;;1.80;1.70;;;10.70;99.90;;;;;;5165181;27;20221;-38
2021/05/03 12:22:27;;;;;;;2.47;1.20;;;10.70;99.90;;;;;;5165516;27;20662;-40
2021/05/03 12:25:03;;;;;;;2.20;1.52;;;10.70;99.90;;;;;;5159420;27;20566;-39
2021/05/03 12:27:35;;;;;;;3.05;1.52;;;10.70;99.90;;;;;;5164711;27;20194;-40
2021/05/03 12:30:09;;;;;;;3.58;1.85;;;10.70;99.90;;;;;;5165118;27;20206;-40
2021/05/03 12:32:41;;;;;;;1.88;1.58;;;10.70;99.90;;;;;;5164858;27;20199;-40
2021/05/03 12:35:15;;;;;;;2.40;1.85;;;10.70;99.90;;;;;;5165670;27;20254;-40
2021/05/03 12:37:46;;;;;;;1.85;1.50;;;10.70;99.90;;;;;;5164948;27;20229;-39
2021/05/03 12:40:17;;;;;;;2.05;1.83;;;10.70;99.90;;;;;;5165127;27;20239;-40
2021/05/03 12:42:50;;;;;;;1.52;1.42;;;10.70;99.90;;;;;;5148093;27;20198;-41
2021/05/03 12:45:31;;;;;;;1.90;1.70;;;10.70;99.90;;;;;;5164552;27;20194;-41
2021/05/03 12:48:11;;;;;;;2.72;2.00;;;10.80;99.90;;;;;;5158815;27;20198;-40
2021/05/03 12:51:06;;;;;;;1.95;1.85;;;10.70;99.90;;;;;;5164609;27;20267;-40
2021/05/03 12:53:54;;;;;;;2.40;1.55;;;10.80;99.90;;;;;;5165277;27;20231;-40
2021/05/03 12:56:31;;;;;;;2.17;1.70;;;10.80;99.90;;;;;;5164484;27;20223;-39
2021/05/03 12:59:08;;;;;;;4.97;1.80;;;10.80;99.90;;;;;;5154885;27;20214;-40
2021/05/03 13:01:49;;;;;;;2.60;2.40;;;10.80;99.90;;;;;;5164025;27;20202;-40
2021/05/03 13:04:37;;;;;;;2.70;2.50;;;10.70;99.90;;;;;;5158536;27;20258;-40
2021/05/03 13:07:31;;;;;;;4.40;3.17;;;10.70;99.90;;;;;;5161170;27;20212;-41
2021/05/03 13:10:28;;;;;;;4.13;3.00;;;10.60;99.90;;;;;;5164826;27;20199;-38
2021/05/03 13:30:05;;;;;;;3.03;2.50;;;10.60;99.90;;;;;;5165243;27;20210;-40
2021/05/03 13:32:36;;;;;;;3.42;2.75;;;10.60;99.90;;;;;;5164772;27;20207;-39
2021/05/03 13:35:07;;;;;;;3.58;2.95;;;10.70;99.90;;;;;;5168195;27;20202;-40
2021/05/03 13:37:37;;;;;;;3.70;2.38;;;10.80;99.90;;;;;;5168517;27;20190;-39
2021/05/03 13:40:12;;;;;;;3.53;2.80;;;10.80;99.90;;;;;;5168367;27;20209;-40
2021/05/03 13:42:45;;;;;;;2.80;2.60;;;10.80;99.90;;;;;;5167535;27;20228;-40
2021/05/03 13:45:16;;;;;;;6.57;2.90;;;10.90;99.90;;;;;;5168536;27;20205;-40
2021/05/03 13:47:49;;;;;;;3.38;3.08;;;10.90;99.90;;;;;;5168112;27;20198;-39
2021/05/03 13:50:20;;;;;;;3.33;2.33;;;11.00;99.90;;;;;;5168840;27;20206;-39
2021/05/03 13:52:50;;;;;;;2.60;2.40;;;11.10;99.90;;;;;;5168202;27;20221;-40
2021/05/03 13:55:20;;;;;;;6.28;3.08;;;11.20;99.90;;;;;;5169037;27;20216;-39
2021/05/03 13:57:50;;;;;;;4.07;2.50;;;11.30;99.90;;;;;;5167417;27;20206;-38
2021/05/03 14:00:20;;;;;;;2.70;2.50;;;11.30;99.90;;;;;;5168716;27;20251;-41